createdAt,value
2023-05-05T00:01:57.490Z,101052.41
2023-05-05T00:05:18.002Z,101052.38
2023-05-05T00:08:23.015Z,101050.69
2023-05-05T00:11:26.641Z,101057.41
2023-05-05T00:14:37.185Z,101054.13
2023-05-05T00:17:46.814Z,101052.94
2023-05-05T00:20:50.354Z,101054.78
2023-05-05T00:23:54.499Z,101054.41
2023-05-05T00:27:08.246Z,101051.50
2023-05-05T00:30:13.958Z,101044.59
2023-05-05T00:33:21.209Z,101051.38
2023-05-05T00:36:42.854Z,101046.84
2023-05-05T00:39:45.790Z,101044.66
2023-05-05T00:42:51.021Z,101049.81
2023-05-05T00:46:10.376Z,101052.16
2023-05-05T00:49:21.343Z,101051.97
2023-05-05T00:52:28.160Z,101041.06
2023-05-05T00:55:48.015Z,101040.66
2023-05-05T00:58:52.294Z,101042.56
2023-05-05T01:02:00.665Z,101037.66
2023-05-05T01:05:19.965Z,101039.78
2023-05-05T01:08:45.815Z,101040.00
2023-05-05T01:12:07.034Z,101040.19
2023-05-05T01:15:32.219Z,101029.41
2023-05-05T01:19:04.359Z,101038.84
2023-05-05T01:22:22.026Z,101029.41
2023-05-05T01:26:15.010Z,101026.56
2023-05-05T01:29:48.292Z,101027.09
2023-05-05T01:33:17.009Z,101029.84
2023-05-05T01:36:49.937Z,101028.13
2023-05-05T01:39:59.615Z,101032.47
2023-05-05T01:43:26.715Z,101028.84
2023-05-05T01:47:05.941Z,101035.50
2023-05-05T01:50:24.901Z,101025.00
2023-05-05T01:53:35.053Z,101031.34
2023-05-05T01:56:48.834Z,101024.91
2023-05-05T02:00:07.708Z,101037.53
2023-05-05T02:03:32.498Z,101030.22
2023-05-05T02:06:53.480Z,101018.81
2023-05-05T02:10:14.850Z,101022.22
2023-05-05T02:13:26.271Z,101019.59
2023-05-05T02:16:31.308Z,101018.00
2023-05-05T02:19:45.983Z,101021.44
2023-05-05T02:23:23.925Z,101016.97
2023-05-05T02:27:06.890Z,101032.28
2023-05-05T02:30:35.597Z,101025.03
2023-05-05T02:33:50.600Z,101028.03
2023-05-05T02:37:16.605Z,101030.81
2023-05-05T02:40:37.462Z,101017.69
2023-05-05T02:44:01.633Z,101022.13
2023-05-05T02:47:24.483Z,101021.16
2023-05-05T02:50:42.650Z,101022.56
2023-05-05T02:54:04.640Z,101024.84
2023-05-05T02:57:25.757Z,101020.50
2023-05-05T03:00:57.909Z,101033.66
2023-05-05T03:04:30.406Z,101023.59
2023-05-05T03:07:54.184Z,101023.00
2023-05-05T03:11:06.846Z,101023.28
2023-05-05T03:14:22.219Z,101021.00
2023-05-05T03:17:44.788Z,101027.50
2023-05-05T03:20:55.441Z,101021.00
2023-05-05T03:24:18.599Z,101024.25
2023-05-05T03:27:45.652Z,101025.34
2023-05-05T03:31:04.019Z,101018.88
2023-05-05T03:34:18.724Z,101019.06
2023-05-05T03:37:52.616Z,101011.44
2023-05-05T03:41:37.623Z,101024.59
2023-05-05T03:45:15.726Z,101019.16
2023-05-05T03:48:49.069Z,101028.00
2023-05-05T03:52:24.850Z,101024.81
2023-05-05T03:55:40.466Z,101030.56
2023-05-05T03:59:03.508Z,101034.00
2023-05-05T04:02:26.548Z,101047.66
2023-05-05T04:05:44.432Z,101047.31
2023-05-05T04:09:36.272Z,101047.41
2023-05-05T04:13:08.206Z,101041.59
2023-05-05T04:16:45.694Z,101050.63
2023-05-05T04:20:14.077Z,101044.25
2023-05-05T04:23:41.433Z,101039.75
2023-05-05T04:27:12.786Z,101042.63
2023-05-05T04:30:44.330Z,101050.81
2023-05-05T04:34:18.441Z,101058.03
2023-05-05T04:37:44.179Z,101060.44
2023-05-05T04:41:07.514Z,101058.69
2023-05-05T04:44:39.858Z,101053.31
2023-05-05T04:47:55.394Z,101063.66
2023-05-05T04:51:12.252Z,101069.34
2023-05-05T04:54:29.598Z,101070.13
2023-05-05T04:57:44.466Z,101075.41
2023-05-05T05:01:00.702Z,101075.72
2023-05-05T05:04:30.314Z,101078.09
2023-05-05T05:08:04.418Z,101078.97
2023-05-05T05:11:26.980Z,101085.22
2023-05-05T05:14:48.986Z,101086.50
2023-05-05T05:18:12.320Z,101077.47
2023-05-05T05:21:33.386Z,101072.84
2023-05-05T05:24:54.793Z,101079.66
2023-05-05T05:28:18.191Z,101079.88
2023-05-05T05:31:44.060Z,101084.59
2023-05-05T05:34:49.952Z,101088.84
2023-05-05T05:37:54.236Z,101092.75
2023-05-05T05:41:28.146Z,101089.53
2023-05-05T05:44:32.917Z,101096.84
2023-05-05T05:47:43.753Z,101100.91
2023-05-05T05:50:54.744Z,101100.75
2023-05-05T05:53:58.929Z,101101.97
2023-05-05T05:57:10.801Z,101098.47
2023-05-05T06:00:20.368Z,101096.41
2023-05-05T06:03:52.843Z,101097.47
2023-05-05T06:07:13.744Z,101101.38
2023-05-05T06:10:28.968Z,101094.31
2023-05-05T06:13:48.439Z,101100.16
2023-05-05T06:21:27.441Z,101106.78
2023-05-05T06:24:32.173Z,101098.44
2023-05-05T06:27:59.373Z,101092.91
2023-05-05T06:31:40.486Z,101089.84
2023-05-05T06:34:52.784Z,101083.28
2023-05-05T06:38:09.888Z,101093.09
2023-05-05T06:41:27.015Z,101085.69
2023-05-05T06:44:36.957Z,101082.25
2023-05-05T06:47:41.876Z,101086.97
2023-05-05T06:50:45.778Z,101083.22
2023-05-05T06:54:01.385Z,101076.09
2023-05-05T06:57:05.608Z,101082.25
2023-05-05T07:00:15.159Z,101079.41
2023-05-05T07:03:20.785Z,101075.56
2023-05-05T07:06:31.938Z,101085.59
2023-05-05T07:14:24.716Z,101072.41
2023-05-05T07:17:31.878Z,101082.22
2023-05-05T07:20:48.958Z,101080.31
2023-05-05T07:23:56.871Z,101076.47
2023-05-05T07:27:04.343Z,101067.56
2023-05-05T07:30:17.336Z,101073.22
2023-05-05T07:33:43.717Z,101073.22
2023-05-05T07:37:05.148Z,101069.34
2023-05-05T07:41:00.611Z,101067.94
2023-05-05T07:44:27.199Z,101062.75
2023-05-05T07:47:51.706Z,101063.09
2023-05-05T07:50:59.730Z,101062.75
2023-05-05T07:54:04.542Z,101071.91
2023-05-05T07:57:14.821Z,101067.25
2023-05-05T08:01:13.289Z,101070.66
2023-05-05T08:04:18.356Z,101076.44
2023-05-05T08:07:22.327Z,101071.84
2023-05-05T08:11:19.215Z,101065.03
2023-05-05T08:14:25.383Z,101068.69
2023-05-05T08:17:29.499Z,101068.13
2023-05-05T08:20:46.008Z,101061.25
2023-05-05T08:23:49.180Z,101061.91
2023-05-05T08:26:53.011Z,101064.25
2023-05-05T08:30:06.229Z,101060.63
2023-05-05T08:33:11.299Z,101062.78
2023-05-05T08:36:14.767Z,101064.19
2023-05-05T08:39:23.133Z,101059.88
2023-05-05T08:42:37.054Z,101062.69
2023-05-05T08:45:57.018Z,101057.59
2023-05-05T08:49:28.052Z,101060.06
2023-05-05T08:52:51.390Z,101053.84
2023-05-05T08:56:08.255Z,101053.72
2023-05-05T08:59:37.645Z,101050.41
2023-05-05T09:03:00.227Z,101053.53
2023-05-05T09:06:21.860Z,101049.66
2023-05-05T09:09:27.249Z,101044.69
2023-05-05T09:12:51.922Z,101044.69
2023-05-05T09:16:05.652Z,101044.47
2023-05-05T09:19:12.924Z,101041.22
2023-05-05T09:22:41.594Z,101040.63
2023-05-05T09:26:10.060Z,101026.53
2023-05-05T09:29:36.612Z,101018.28
2023-05-05T09:32:52.982Z,101014.59
2023-05-05T09:36:01.363Z,101015.75
2023-05-05T09:39:13.289Z,101007.63
2023-05-05T09:42:27.414Z,101014.28
2023-05-05T09:45:37.502Z,101008.41
2023-05-05T09:49:01.889Z,101000.16
2023-05-05T09:52:36.373Z,101013.09
2023-05-05T09:56:30.905Z,101001.50
2023-05-05T09:59:34.260Z,101003.16
2023-05-05T10:02:43.593Z,101002.69
2023-05-05T10:06:04.914Z,101001.44
2023-05-05T10:09:27.632Z,100998.78
2023-05-05T10:12:32.515Z,100991.44
2023-05-05T10:15:36.500Z,100990.22
2023-05-05T10:18:47.290Z,100993.03
2023-05-05T10:22:04.411Z,100993.63
2023-05-05T10:25:22.845Z,100985.81
2023-05-05T10:28:35.029Z,100989.44
2023-05-05T10:31:54.694Z,100988.47
2023-05-05T10:35:03.769Z,100980.66
2023-05-05T10:38:11.626Z,100976.75
2023-05-05T10:41:28.500Z,100965.91
2023-05-05T10:44:38.419Z,100965.16
2023-05-05T10:48:02.554Z,100957.97
2023-05-05T10:51:39.403Z,100950.81
2023-05-05T10:54:57.972Z,100942.59
2023-05-05T10:58:12.512Z,100943.59
2023-05-05T11:01:36.471Z,100943.97
2023-05-05T11:05:15.265Z,100934.59
2023-05-05T11:08:26.978Z,100929.47
2023-05-05T11:12:09.819Z,100932.69
2023-05-05T11:15:32.061Z,100927.56
2023-05-05T11:18:43.367Z,100925.38
2023-05-05T11:22:03.175Z,100919.38
2023-05-05T11:25:34.852Z,100926.06
2023-05-05T11:29:04.875Z,100914.81
2023-05-05T11:32:20.378Z,100917.25
2023-05-05T11:35:56.378Z,100902.03
2023-05-05T11:39:25.567Z,100902.63
2023-05-05T11:42:41.422Z,100905.69
2023-05-05T11:45:45.109Z,100896.56
2023-05-05T11:48:54.063Z,100889.44
2023-05-05T11:52:02.681Z,100889.19
2023-05-05T11:55:06.289Z,100880.66
2023-05-05T11:58:21.094Z,100876.56
2023-05-05T12:01:29.154Z,100878.66
2023-05-05T12:04:48.121Z,100871.28
2023-05-05T12:08:10.143Z,100868.97
2023-05-05T12:11:27.219Z,100868.47
2023-05-05T12:14:59.499Z,100857.66
2023-05-05T12:18:20.447Z,100852.38
2023-05-05T12:21:41.142Z,100856.06
2023-05-05T12:25:03.296Z,100850.69
2023-05-05T12:28:25.162Z,100845.72
2023-05-05T12:31:38.167Z,100847.13
2023-05-05T12:34:49.040Z,100836.66
2023-05-05T12:38:00.179Z,100853.28
2023-05-05T12:41:21.530Z,100841.72
2023-05-05T12:44:37.841Z,100824.34
2023-05-05T12:47:47.757Z,100831.66
2023-05-05T12:50:54.600Z,100825.28
2023-05-05T12:54:11.609Z,100832.00
2023-05-05T12:57:14.718Z,100819.41
2023-05-05T13:00:26.202Z,100815.34
2023-05-05T13:03:48.274Z,100814.31
2023-05-05T13:07:15.396Z,100819.31
2023-05-05T13:10:32.359Z,100798.91
2023-05-05T13:13:36.454Z,100797.44
2023-05-05T13:16:40.173Z,100795.97
2023-05-05T13:19:51.001Z,100792.91
2023-05-05T13:23:05.517Z,100799.94
2023-05-05T13:26:40.837Z,100782.66
2023-05-05T13:30:04.895Z,100780.91
2023-05-05T13:33:27.851Z,100778.22
2023-05-05T13:36:40.588Z,100777.25
2023-05-05T13:39:49.827Z,100775.28
2023-05-05T13:43:26.665Z,100771.75
2023-05-05T13:46:55.892Z,100762.06
2023-05-05T13:50:07.971Z,100755.06
2023-05-05T13:53:11.079Z,100750.97
2023-05-05T13:56:14.705Z,100762.31
2023-05-05T13:59:26.214Z,100754.88
2023-05-05T14:02:30.079Z,100750.75
2023-05-05T14:05:54.498Z,100747.03
2023-05-05T14:09:15.134Z,100742.22
2023-05-05T14:12:36.092Z,100740.78
2023-05-05T14:15:53.103Z,100744.94
2023-05-05T14:19:06.974Z,100739.56
2023-05-05T14:22:14.267Z,100742.84
2023-05-05T14:25:28.600Z,100737.53
2023-05-05T14:28:49.930Z,100740.97
2023-05-05T14:32:08.029Z,100732.91
2023-05-05T14:35:24.751Z,100730.16
2023-05-05T14:38:38.641Z,100723.28
2023-05-05T14:41:55.241Z,100724.81
2023-05-05T14:44:58.653Z,100721.84
2023-05-05T14:48:08.386Z,100727.16
2023-05-05T14:51:17.405Z,100713.66
2023-05-05T14:54:28.266Z,100725.09
2023-05-05T14:57:39.045Z,100721.56
2023-05-05T15:00:46.253Z,100711.94
2023-05-05T15:04:06.824Z,100720.84
2023-05-05T15:07:32.838Z,100718.34
2023-05-05T15:10:50.884Z,100712.69
2023-05-05T15:13:54.063Z,100712.78
2023-05-05T15:16:57.788Z,100705.31
2023-05-05T15:20:20.867Z,100709.94
2023-05-05T15:23:58.443Z,100716.78
2023-05-05T15:27:33.907Z,100716.03
2023-05-05T15:31:01.902Z,100710.28
2023-05-05T15:34:24.905Z,100702.69
2023-05-05T15:37:42.811Z,100708.41
2023-05-05T15:41:06.733Z,100694.97
2023-05-05T15:44:32.830Z,100702.09
2023-05-05T15:47:54.902Z,100693.75
2023-05-05T15:51:04.725Z,100704.06
2023-05-05T15:54:22.686Z,100692.13
2023-05-05T15:57:51.789Z,100696.00
2023-05-05T16:01:26.859Z,100691.13
2023-05-05T16:04:47.988Z,100691.13
2023-05-05T16:08:10.634Z,100687.00
2023-05-05T16:11:27.822Z,100689.16
2023-05-05T16:14:48.129Z,100687.91
2023-05-05T16:18:07.804Z,100687.16
2023-05-05T16:21:37.046Z,100677.94
2023-05-05T16:24:56.698Z,100682.78
2023-05-05T16:28:12.929Z,100682.66
2023-05-05T16:31:26.735Z,100679.94
2023-05-05T16:34:29.892Z,100680.56
2023-05-05T16:37:39.440Z,100680.50
2023-05-05T16:41:02.808Z,100680.72
2023-05-05T16:44:17.365Z,100678.13
2023-05-05T16:47:27.335Z,100675.75
2023-05-05T16:50:37.906Z,100678.84
2023-05-05T16:53:44.351Z,100677.56
2023-05-05T16:56:51.085Z,100671.97
2023-05-05T16:59:56.307Z,100668.91
2023-05-05T17:03:23.017Z,100673.84
2023-05-05T17:06:26.887Z,100675.47
2023-05-05T17:09:45.468Z,100672.25
2023-05-05T17:13:06.398Z,100673.59
2023-05-05T17:16:28.455Z,100677.22
2023-05-05T17:19:31.700Z,100674.19
2023-05-05T17:22:35.331Z,100670.63
2023-05-05T17:25:47.052Z,100671.00
2023-05-05T17:28:53.070Z,100675.72
2023-05-05T17:31:56.842Z,100676.66
2023-05-05T17:34:59.650Z,100669.31
2023-05-05T17:38:15.790Z,100675.53
2023-05-05T17:41:38.633Z,100685.44
2023-05-05T17:45:08.804Z,100687.88
2023-05-05T17:48:32.929Z,100686.53
2023-05-05T17:51:55.498Z,100681.03
2023-05-05T17:55:17.481Z,100681.16
2023-05-05T17:58:40.578Z,100683.06
2023-05-05T18:02:03.482Z,100692.31
2023-05-05T18:05:24.513Z,100684.13
2023-05-05T18:08:50.128Z,100687.59
2023-05-05T18:12:09.462Z,100688.63
2023-05-05T18:15:26.403Z,100697.13
2023-05-05T18:18:48.542Z,100695.22
2023-05-05T18:22:16.503Z,100697.13
2023-05-05T18:25:38.637Z,100696.84
2023-05-05T18:29:01.411Z,100707.56
2023-05-05T18:32:22.488Z,100709.63
2023-05-05T18:35:38.564Z,100709.00
2023-05-05T18:38:58.753Z,100712.81
2023-05-05T18:42:24.521Z,100702.75
2023-05-05T18:45:48.550Z,100712.28
2023-05-05T18:48:51.620Z,100714.59
2023-05-05T18:51:56.456Z,100714.88
2023-05-05T18:55:10.307Z,100722.59
2023-05-05T18:58:31.961Z,100722.50
2023-05-05T19:01:42.938Z,100725.38
2023-05-05T19:04:48.033Z,100722.53
2023-05-05T19:07:52.093Z,100724.97
2023-05-05T19:10:58.990Z,100726.88
2023-05-05T19:14:02.696Z,100731.53
2023-05-05T19:17:10.659Z,100732.69
2023-05-05T19:20:29.178Z,100734.50
2023-05-05T19:23:51.141Z,100728.34
2023-05-05T19:26:54.399Z,100736.06
2023-05-05T19:29:58.020Z,100735.44
2023-05-05T19:33:04.857Z,100726.47
2023-05-05T19:36:14.853Z,100729.38
2023-05-05T19:39:18.998Z,100726.50
2023-05-05T19:42:26.760Z,100726.47
2023-05-05T19:45:31.572Z,100731.91
2023-05-05T19:48:35.177Z,100734.03
2023-05-05T19:51:38.202Z,100734.06
2023-05-05T19:54:45.054Z,100729.81
2023-05-05T19:57:52.770Z,100732.00
2023-05-05T20:00:59.618Z,100738.00
2023-05-05T20:04:22.302Z,100730.97
2023-05-05T20:07:43.175Z,100733.81
2023-05-05T20:11:06.124Z,100731.63
2023-05-05T20:14:29.427Z,100735.66
2023-05-05T20:17:32.529Z,100736.00
2023-05-05T20:20:48.218Z,100725.69
2023-05-05T20:24:24.237Z,100742.34
2023-05-05T20:27:56.165Z,100735.72
2023-05-05T20:31:18.149Z,100734.69
2023-05-05T20:34:41.193Z,100723.00
2023-05-05T20:38:03.277Z,100738.25
2023-05-05T20:41:06.473Z,100729.19
2023-05-05T20:44:10.385Z,100726.16
2023-05-05T20:47:27.606Z,100732.22
2023-05-05T20:50:41.836Z,100743.63
2023-05-05T20:53:44.962Z,100739.94
2023-05-05T20:56:47.704Z,100730.13
2023-05-05T20:59:50.580Z,100733.34
2023-05-05T21:03:06.396Z,100732.56
2023-05-05T21:06:32.208Z,100724.69
2023-05-05T21:09:48.399Z,100735.84
2023-05-05T21:12:52.143Z,100734.16
2023-05-05T21:15:55.164Z,100728.91
2023-05-05T21:19:04.636Z,100723.97
2023-05-05T21:22:15.548Z,100734.94
2023-05-05T21:25:22.200Z,100725.94
2023-05-05T21:28:29.317Z,100727.13
2023-05-05T21:31:50.235Z,100720.69
2023-05-05T21:34:53.380Z,100724.84
2023-05-05T21:37:58.160Z,100717.16
2023-05-05T21:41:07.890Z,100721.16
2023-05-05T21:44:17.598Z,100708.31
2023-05-05T21:47:28.852Z,100710.25
2023-05-05T21:50:45.489Z,100699.88
2023-05-05T21:53:48.715Z,100693.97
2023-05-05T21:57:02.386Z,100694.56
2023-05-05T22:00:08.267Z,100699.91
2023-05-05T22:03:17.017Z,100697.34
2023-05-05T22:06:38.074Z,100689.66
2023-05-05T22:09:41.202Z,100699.75
2023-05-05T22:13:05.064Z,100695.28
2023-05-05T22:16:29.024Z,100698.53
2023-05-05T22:20:05.012Z,100705.09
2023-05-05T22:23:28.141Z,100703.53
2023-05-05T22:26:31.151Z,100712.91
2023-05-05T22:29:41.858Z,100706.44
2023-05-05T22:32:46.605Z,100712.59
2023-05-05T22:36:03.170Z,100713.09
2023-05-05T22:39:09.453Z,100714.69
2023-05-05T22:42:13.525Z,100716.28
2023-05-05T22:45:28.066Z,100716.78
2023-05-05T22:48:32.943Z,100731.72
2023-05-05T22:51:49.501Z,100722.88
2023-05-05T22:55:21.845Z,100720.09
2023-05-05T22:58:38.586Z,100718.81
2023-05-05T23:02:07.896Z,100716.22
2023-05-05T23:05:31.010Z,100723.78
2023-05-05T23:08:55.876Z,100718.31
2023-05-05T23:12:22.077Z,100717.84
2023-05-05T23:15:44.840Z,100722.16
2023-05-05T23:19:05.988Z,100709.59
2023-05-05T23:22:28.789Z,100718.00
2023-05-05T23:25:47.062Z,100720.69
2023-05-05T23:29:06.948Z,100710.75
2023-05-05T23:32:33.905Z,100714.41
2023-05-05T23:35:53.807Z,100711.69
2023-05-05T23:39:13.785Z,100706.69
2023-05-05T23:42:36.780Z,100707.50
2023-05-05T23:45:53.919Z,100711.03
2023-05-05T23:48:57.970Z,100704.13
2023-05-05T23:52:01.194Z,100711.13
2023-05-05T23:55:12.418Z,100707.09
2023-05-05T23:58:27.710Z,100713.66
